createdAt,value
2022-12-11T00:01:11.949Z,1.40
2022-12-11T00:03:40.209Z,1.50
2022-12-11T00:06:09.718Z,1.50
2022-12-11T00:08:39.583Z,1.50
2022-12-11T00:11:09.798Z,1.50
2022-12-11T00:13:37.892Z,1.50
2022-12-11T00:16:06.735Z,1.40
2022-12-11T00:18:35.056Z,1.40
2022-12-11T00:21:03.624Z,1.50
2022-12-11T00:23:31.845Z,1.50
2022-12-11T00:26:01.324Z,1.50
2022-12-11T00:28:29.388Z,1.50
2022-12-11T00:30:57.456Z,1.60
2022-12-11T00:33:28.228Z,1.60
2022-12-11T00:35:56.299Z,1.60
2022-12-11T00:38:24.367Z,1.70
2022-12-11T00:40:52.542Z,1.70
2022-12-11T00:43:21.997Z,1.80
2022-12-11T00:45:50.145Z,1.80
2022-12-11T00:48:18.431Z,1.80
2022-12-11T00:50:47.330Z,1.80
2022-12-11T00:53:15.506Z,1.80
2022-12-11T00:55:44.481Z,1.80
2022-12-11T00:58:13.496Z,1.90
2022-12-11T01:00:44.170Z,1.90
2022-12-11T01:03:14.346Z,1.90
2022-12-11T01:05:42.824Z,1.90
2022-12-11T01:08:10.966Z,1.90
2022-12-11T01:10:38.133Z,1.80
2022-12-11T01:13:07.839Z,1.80
2022-12-11T01:15:42.125Z,1.80
2022-12-11T01:18:12.805Z,1.70
2022-12-11T01:20:43.569Z,1.70
2022-12-11T01:23:13.996Z,1.60
2022-12-11T01:25:42.471Z,1.40
2022-12-11T01:28:11.266Z,1.40
2022-12-11T01:30:41.770Z,1.40
2022-12-11T01:33:11.647Z,1.40
2022-12-11T01:35:41.186Z,1.40
2022-12-11T01:38:10.613Z,1.40
2022-12-11T01:40:38.961Z,1.40
2022-12-11T01:43:07.034Z,1.50
2022-12-11T01:45:44.567Z,1.50
2022-12-11T01:48:17.128Z,1.60
2022-12-11T01:50:49.963Z,1.60
2022-12-11T01:53:22.200Z,1.50
2022-12-11T01:55:54.409Z,1.30
2022-12-11T01:58:27.435Z,1.30
2022-12-11T02:00:56.786Z,1.20
2022-12-11T02:03:26.489Z,1.30
2022-12-11T02:05:54.575Z,1.30
2022-12-11T02:08:23.015Z,1.30
2022-12-11T02:11:04.172Z,1.30
2022-12-11T02:13:40.918Z,1.30
2022-12-11T02:16:18.528Z,1.30
2022-12-11T02:18:54.593Z,1.40
2022-12-11T02:21:27.044Z,1.40
2022-12-11T02:24:15.251Z,1.50
2022-12-11T02:27:02.780Z,1.50
2022-12-11T02:29:37.977Z,1.50
2022-12-11T02:32:12.068Z,1.60
2022-12-11T02:34:45.872Z,1.60
2022-12-11T02:37:17.721Z,1.70
2022-12-11T02:39:47.734Z,1.40
2022-12-11T02:42:17.301Z,1.40
2022-12-11T02:44:49.811Z,1.50
2022-12-11T02:47:19.286Z,1.50
2022-12-11T02:49:50.605Z,1.60
2022-12-11T02:52:21.870Z,1.60
2022-12-11T02:54:51.913Z,1.70
2022-12-11T02:57:25.275Z,1.70
2022-12-11T02:59:55.018Z,1.70
2022-12-11T03:02:23.279Z,1.70
2022-12-11T03:04:51.606Z,1.60
2022-12-11T03:07:24.490Z,1.50
2022-12-11T03:09:53.382Z,1.40
2022-12-11T03:12:29.014Z,1.40
2022-12-11T03:15:01.355Z,1.40
2022-12-11T03:17:34.022Z,1.40
2022-12-11T03:20:07.858Z,1.30
2022-12-11T03:22:42.040Z,1.40
2022-12-11T03:25:14.872Z,1.30
2022-12-11T03:27:49.231Z,1.30
2022-12-11T03:30:20.669Z,1.30
2022-12-11T03:32:52.761Z,1.30
2022-12-11T03:35:24.249Z,1.30
2022-12-11T03:37:54.348Z,1.30
2022-12-11T03:40:24.039Z,1.40
2022-12-11T03:42:54.994Z,1.40
2022-12-11T03:45:26.479Z,1.50
2022-12-11T03:47:57.584Z,1.50
2022-12-11T03:50:29.515Z,1.50
2022-12-11T03:52:59.641Z,1.40
2022-12-11T03:55:29.184Z,1.50
2022-12-11T03:57:57.393Z,1.50
2022-12-11T04:00:26.948Z,1.40
2022-12-11T04:03:14.107Z,1.40
2022-12-11T04:05:43.125Z,1.30
2022-12-11T04:08:11.611Z,1.20
2022-12-11T04:10:39.885Z,1.20
2022-12-11T04:13:08.368Z,1.10
2022-12-11T04:15:37.434Z,1.10
2022-12-11T04:18:23.460Z,1.10
2022-12-11T04:21:11.891Z,1.20
2022-12-11T04:23:57.434Z,1.20
2022-12-11T04:26:25.768Z,1.30
2022-12-11T04:28:53.900Z,1.30
2022-12-11T04:31:24.133Z,1.40
2022-12-11T04:33:53.169Z,1.40
2022-12-11T04:36:21.296Z,1.40
2022-12-11T04:38:49.381Z,1.50
2022-12-11T04:41:18.121Z,1.50
2022-12-11T04:43:46.300Z,1.60
2022-12-11T04:46:17.715Z,1.60
2022-12-11T04:48:52.434Z,1.60
2022-12-11T04:51:24.096Z,1.70
2022-12-11T04:53:52.282Z,1.60
2022-12-11T04:56:20.689Z,1.60
2022-12-11T04:58:49.565Z,1.60
2022-12-11T05:01:19.516Z,1.40
2022-12-11T05:03:49.592Z,1.40
2022-12-11T05:06:18.146Z,1.30
2022-12-11T05:08:46.351Z,1.20
2022-12-11T05:11:15.895Z,1.20
2022-12-11T05:13:44.804Z,1.30
2022-12-11T05:16:15.529Z,1.30
2022-12-11T05:18:44.010Z,1.20
2022-12-11T05:21:15.340Z,1.10
2022-12-11T05:23:43.851Z,1.10
2022-12-11T05:26:15.291Z,1.00
2022-12-11T05:28:43.584Z,1.10
2022-12-11T05:31:14.507Z,1.10
2022-12-11T05:33:42.969Z,1.10
2022-12-11T05:36:17.526Z,1.10
2022-12-11T05:38:45.812Z,1.20
2022-12-11T05:41:16.589Z,1.20
2022-12-11T05:43:45.223Z,1.30
2022-12-11T05:46:15.386Z,1.30
2022-12-11T05:48:44.812Z,1.30
2022-12-11T05:51:13.770Z,1.20
2022-12-11T05:53:44.076Z,1.10
2022-12-11T05:56:14.821Z,1.00
2022-12-11T05:58:44.339Z,1.10
2022-12-11T06:01:14.620Z,1.10
2022-12-11T06:03:42.683Z,1.00
2022-12-11T06:06:11.332Z,1.00
2022-12-11T06:08:39.600Z,1.00
2022-12-11T06:11:09.112Z,1.10
2022-12-11T06:13:37.491Z,1.10
2022-12-11T06:16:07.514Z,1.10
2022-12-11T06:18:37.816Z,1.10
2022-12-11T06:21:16.822Z,0.90
2022-12-11T06:23:45.541Z,0.70
2022-12-11T06:26:16.611Z,0.50
2022-12-11T06:28:45.239Z,0.60
2022-12-11T06:31:14.050Z,0.50
2022-12-11T06:33:44.354Z,0.40
2022-12-11T06:36:15.376Z,0.40
2022-12-11T06:38:43.937Z,0.50
2022-12-11T06:41:12.421Z,0.40
2022-12-11T06:43:42.957Z,0.30
2022-12-11T06:46:13.019Z,0.40
2022-12-11T06:48:42.427Z,0.40
2022-12-11T06:51:13.473Z,0.50
2022-12-11T06:53:41.900Z,0.50
2022-12-11T06:56:12.792Z,0.60
2022-12-11T06:58:43.866Z,0.70
2022-12-11T07:01:17.037Z,0.70
2022-12-11T07:03:45.740Z,0.60
2022-12-11T07:06:14.957Z,0.60
2022-12-11T07:08:43.539Z,0.50
2022-12-11T07:11:14.054Z,0.40
2022-12-11T07:13:43.956Z,0.20
2022-12-11T07:16:13.863Z,0.20
2022-12-11T07:18:43.493Z,0.30
2022-12-11T07:21:14.238Z,0.30
2022-12-11T07:23:42.732Z,0.40
2022-12-11T07:26:13.277Z,0.40
2022-12-11T07:28:43.456Z,0.30
2022-12-11T07:31:14.286Z,0.40
2022-12-11T07:33:43.381Z,0.30
2022-12-11T07:36:13.332Z,0.40
2022-12-11T07:38:41.673Z,0.50
2022-12-11T07:41:13.669Z,0.60
2022-12-11T07:43:43.787Z,0.70
2022-12-11T07:46:14.298Z,0.70
2022-12-11T07:48:43.809Z,0.50
2022-12-11T07:51:14.894Z,0.30
2022-12-11T07:53:45.168Z,0.20
2022-12-11T07:56:13.553Z,0.10
2022-12-11T07:58:43.281Z,0.20
2022-12-11T08:01:13.774Z,0.30
2022-12-11T08:03:42.393Z,0.40
2022-12-11T08:06:11.267Z,0.40
2022-12-11T08:08:39.770Z,0.40
2022-12-11T08:11:09.419Z,0.50
2022-12-11T08:13:38.089Z,0.50
2022-12-11T08:16:09.226Z,0.60
2022-12-11T08:18:38.708Z,0.60
2022-12-11T08:21:07.553Z,0.40
2022-12-11T08:23:36.060Z,0.40
2022-12-11T08:26:05.043Z,0.50
2022-12-11T08:28:33.192Z,0.60
2022-12-11T08:31:01.808Z,0.60
2022-12-11T08:33:31.326Z,0.50
2022-12-11T08:35:59.653Z,0.50
2022-12-11T08:38:27.735Z,0.40
2022-12-11T08:40:55.980Z,0.40
2022-12-11T08:43:24.297Z,0.50
2022-12-11T08:45:52.561Z,0.60
2022-12-11T08:48:20.696Z,0.50
2022-12-11T08:50:50.132Z,0.50
2022-12-11T08:53:18.238Z,0.40
2022-12-11T08:55:46.370Z,0.30
2022-12-11T08:58:14.520Z,0.40
2022-12-11T09:00:42.642Z,0.40
2022-12-11T09:03:12.901Z,0.50
2022-12-11T09:05:41.295Z,0.60
2022-12-11T09:08:10.789Z,0.60
2022-12-11T09:10:39.001Z,0.60
2022-12-11T09:13:07.062Z,0.60
2022-12-11T09:15:36.093Z,0.60
2022-12-11T09:18:04.330Z,0.60
2022-12-11T09:20:32.417Z,0.60
2022-12-11T09:23:00.468Z,0.70
2022-12-11T09:25:30.000Z,0.80
2022-12-11T09:27:58.305Z,0.80
2022-12-11T09:30:26.406Z,0.80
2022-12-11T09:32:54.529Z,0.80
2022-12-11T09:35:22.675Z,0.90
2022-12-11T09:37:50.765Z,1.00
2022-12-11T09:40:19.032Z,1.00
2022-12-11T09:42:59.587Z,1.00
2022-12-11T09:45:27.659Z,1.00
2022-12-11T09:47:57.357Z,1.00
2022-12-11T09:50:27.686Z,1.10
2022-12-11T09:53:06.456Z,1.10
2022-12-11T09:55:44.168Z,1.20
2022-12-11T09:58:24.186Z,1.20
2022-12-11T10:00:58.994Z,1.10
2022-12-11T10:03:52.125Z,1.00
2022-12-11T10:06:29.294Z,1.00
2022-12-11T10:09:08.917Z,0.90
2022-12-11T10:11:56.905Z,0.90
2022-12-11T10:14:38.032Z,0.90
2022-12-11T10:17:12.458Z,1.00
2022-12-11T10:19:43.134Z,1.00
2022-12-11T10:22:19.656Z,1.00
2022-12-11T10:25:10.780Z,1.00
2022-12-11T10:27:41.238Z,1.00
2022-12-11T10:30:18.177Z,1.10
2022-12-11T10:32:52.606Z,1.20
2022-12-11T10:35:30.641Z,1.20
2022-12-11T10:38:06.452Z,1.30
2022-12-11T10:40:36.377Z,1.30
2022-12-11T10:43:04.549Z,1.30
2022-12-11T10:45:34.123Z,1.30
2022-12-11T10:48:07.105Z,1.30
2022-12-11T10:50:35.362Z,1.40
2022-12-11T10:53:03.534Z,1.40
2022-12-11T10:55:41.589Z,1.30
2022-12-11T10:58:18.749Z,1.40
2022-12-11T11:01:01.274Z,1.50
2022-12-11T11:03:30.252Z,1.50
2022-12-11T11:06:08.013Z,1.50
2022-12-11T11:08:44.814Z,1.40
2022-12-11T11:11:25.548Z,1.40
2022-12-11T11:14:04.894Z,1.50
2022-12-11T11:16:38.426Z,1.40
2022-12-11T11:19:07.035Z,1.40
2022-12-11T11:21:36.839Z,1.50
2022-12-11T11:24:05.807Z,1.60
2022-12-11T11:27:11.211Z,1.60
2022-12-11T11:29:29.278Z,1.70
2022-12-11T11:32:00.307Z,1.80
2022-12-11T11:34:30.917Z,1.90
2022-12-11T11:37:05.531Z,1.80
2022-12-11T11:39:38.755Z,1.80
2022-12-11T11:42:15.022Z,1.80
2022-12-11T11:44:48.635Z,1.80
2022-12-11T11:47:21.252Z,1.70
2022-12-11T11:49:56.736Z,1.70
2022-12-11T11:52:30.323Z,1.70
2022-12-11T11:55:10.069Z,1.70
2022-12-11T11:57:43.431Z,1.70
2022-12-11T12:00:20.748Z,1.60
2022-12-11T12:02:54.258Z,1.70
2022-12-11T12:05:27.623Z,1.70
2022-12-11T12:08:06.514Z,1.60
2022-12-11T12:10:45.453Z,1.70
2022-12-11T12:13:48.178Z,1.80
2022-12-11T12:16:44.061Z,1.80
2022-12-11T12:19:17.092Z,1.70
2022-12-11T12:21:50.243Z,1.80
2022-12-11T12:24:26.431Z,1.80
2022-12-11T12:27:01.403Z,1.80
2022-12-11T12:29:45.306Z,1.80
2022-12-11T12:32:21.651Z,1.80
2022-12-11T12:35:04.344Z,1.90
2022-12-11T12:37:47.385Z,1.90
2022-12-11T12:40:25.331Z,1.90
2022-12-11T12:43:05.432Z,2.00
2022-12-11T12:45:41.146Z,1.90
2022-12-11T12:48:10.427Z,1.90
2022-12-11T12:50:44.669Z,1.80
2022-12-11T12:53:17.908Z,1.70
2022-12-11T12:55:47.599Z,1.80
2022-12-11T12:58:28.024Z,1.70
2022-12-11T13:01:07.156Z,1.70
2022-12-11T13:03:38.520Z,1.80
2022-12-11T13:06:10.841Z,1.80
2022-12-11T13:08:41.924Z,1.90
2022-12-11T13:11:12.331Z,1.90
2022-12-11T13:13:43.572Z,1.90
2022-12-11T13:16:27.401Z,2.00
2022-12-11T13:18:55.937Z,2.00
2022-12-11T13:21:30.604Z,2.00
2022-12-11T13:24:18.793Z,1.90
2022-12-11T13:26:47.429Z,1.90
2022-12-11T13:29:33.219Z,1.90
2022-12-11T13:32:03.657Z,1.90
2022-12-11T13:34:36.165Z,1.90
2022-12-11T13:37:07.414Z,1.90
2022-12-11T13:39:38.713Z,1.90
2022-12-11T13:42:11.941Z,1.90
2022-12-11T13:44:48.336Z,1.90
2022-12-11T13:47:19.858Z,2.00
2022-12-11T13:49:54.078Z,1.90
2022-12-11T13:52:27.756Z,1.90
2022-12-11T13:54:59.223Z,1.90
2022-12-11T13:57:28.774Z,1.80
2022-12-11T13:59:59.520Z,1.90
2022-12-11T14:02:31.832Z,1.90
2022-12-11T14:05:03.233Z,1.90
2022-12-11T14:07:36.001Z,1.90
2022-12-11T14:10:09.546Z,1.80
2022-12-11T14:12:38.424Z,1.70
2022-12-11T14:15:07.563Z,1.50
2022-12-11T14:17:37.339Z,1.50
2022-12-11T14:20:08.593Z,1.40
2022-12-11T14:22:38.157Z,1.50
2022-12-11T14:25:21.724Z,1.60
2022-12-11T14:27:51.343Z,1.70
2022-12-11T14:30:24.289Z,1.80
2022-12-11T14:32:54.540Z,1.80
2022-12-11T14:35:28.044Z,1.70
2022-12-11T14:38:02.002Z,1.70
2022-12-11T14:40:36.776Z,1.70
2022-12-11T14:43:10.872Z,1.70
2022-12-11T14:45:41.495Z,1.80
2022-12-11T14:48:14.445Z,1.80
2022-12-11T14:50:47.406Z,1.80
2022-12-11T14:53:22.475Z,1.80
2022-12-11T14:55:52.949Z,1.80
2022-12-11T14:58:23.797Z,1.90
2022-12-11T15:01:01.609Z,1.80
2022-12-11T15:03:34.260Z,1.90
2022-12-11T15:06:04.475Z,1.90
2022-12-11T15:08:36.994Z,1.80
2022-12-11T15:11:08.638Z,1.80
2022-12-11T15:13:40.184Z,1.70
2022-12-11T15:16:10.168Z,1.70
2022-12-11T15:18:42.484Z,1.70
2022-12-11T15:21:13.685Z,1.70
2022-12-11T15:23:52.494Z,1.70
2022-12-11T15:26:21.711Z,1.80
2022-12-11T15:29:00.684Z,1.90
2022-12-11T15:31:30.999Z,1.90
2022-12-11T15:33:59.681Z,1.90
2022-12-11T15:36:32.466Z,2.00
2022-12-11T15:39:02.623Z,2.00
2022-12-11T15:41:33.256Z,2.00
2022-12-11T15:44:04.072Z,2.00
2022-12-11T15:46:36.736Z,2.00
2022-12-11T15:49:13.479Z,2.00
2022-12-11T15:51:43.397Z,2.00
2022-12-11T15:54:13.178Z,2.00
2022-12-11T15:56:41.553Z,2.00
2022-12-11T15:59:11.982Z,2.00
2022-12-11T16:01:40.159Z,2.00
2022-12-11T16:04:08.305Z,2.00
2022-12-11T16:06:36.439Z,2.00
2022-12-11T16:09:05.638Z,2.00
2022-12-11T16:11:35.113Z,1.90
2022-12-11T16:14:04.471Z,1.90
2022-12-11T16:16:33.023Z,1.80
2022-12-11T16:19:01.566Z,1.90
2022-12-11T16:21:29.756Z,1.80
2022-12-11T16:23:58.084Z,1.70
2022-12-11T16:26:26.214Z,1.70
2022-12-11T16:28:55.894Z,1.60
2022-12-11T16:31:24.157Z,1.60
2022-12-11T16:33:52.276Z,1.60
2022-12-11T16:36:21.569Z,1.60
2022-12-11T16:38:53.746Z,1.60
2022-12-11T16:41:22.893Z,1.60
2022-12-11T16:43:51.425Z,1.60
2022-12-11T16:46:21.718Z,1.60
2022-12-11T16:48:50.446Z,1.70
2022-12-11T16:51:19.029Z,1.80
2022-12-11T16:53:47.463Z,1.80
2022-12-11T16:56:15.582Z,1.80
2022-12-11T16:58:43.828Z,1.90
2022-12-11T17:01:13.767Z,1.80
2022-12-11T17:03:44.436Z,1.70
2022-12-11T17:06:14.852Z,1.50
2022-12-11T17:08:43.671Z,1.40
2022-12-11T17:11:16.143Z,1.50
2022-12-11T17:13:44.580Z,1.50
2022-12-11T17:16:14.953Z,1.50
2022-12-11T17:18:44.796Z,1.60
2022-12-11T17:21:15.417Z,1.60
2022-12-11T17:23:43.958Z,1.60
2022-12-11T17:26:12.727Z,1.60
2022-12-11T17:28:41.400Z,1.60
2022-12-11T17:31:12.374Z,1.70
2022-12-11T17:33:41.188Z,1.80
2022-12-11T17:36:15.792Z,1.80
2022-12-11T17:38:44.623Z,1.80
2022-12-11T17:41:20.076Z,1.80
2022-12-11T17:43:50.848Z,1.80
2022-12-11T17:46:19.518Z,1.70
2022-12-11T17:48:47.825Z,1.60
2022-12-11T17:51:23.717Z,1.60
2022-12-11T17:53:55.223Z,1.60
2022-12-11T17:56:23.840Z,1.60
2022-12-11T17:58:52.282Z,1.50
2022-12-11T18:01:20.723Z,1.50
2022-12-11T18:03:48.862Z,1.50
2022-12-11T18:06:18.633Z,1.50
2022-12-11T18:08:47.530Z,1.50
2022-12-11T18:11:17.515Z,1.50
2022-12-11T18:13:46.651Z,1.50
2022-12-11T18:16:17.759Z,1.50
2022-12-11T18:18:46.976Z,1.50
2022-12-11T18:21:16.798Z,1.50
2022-12-11T18:23:46.605Z,1.50
2022-12-11T18:26:15.467Z,1.50
2022-12-11T18:28:43.674Z,1.50
2022-12-11T18:31:13.448Z,1.40
2022-12-11T18:33:43.391Z,1.40
2022-12-11T18:36:14.265Z,1.50
2022-12-11T18:38:43.499Z,1.60
2022-12-11T18:41:16.765Z,1.60
2022-12-11T18:43:45.439Z,1.60
2022-12-11T18:46:16.511Z,1.60
2022-12-11T18:48:46.217Z,1.60
2022-12-11T18:51:17.473Z,1.60
2022-12-11T18:53:45.925Z,1.60
2022-12-11T18:56:18.697Z,1.60
2022-12-11T18:58:47.140Z,1.60
2022-12-11T19:01:19.742Z,1.50
2022-12-11T19:03:48.398Z,1.50
2022-12-11T19:06:19.049Z,1.50
2022-12-11T19:08:47.650Z,1.60
2022-12-11T19:11:18.148Z,1.60
2022-12-11T19:13:46.838Z,1.60
2022-12-11T19:16:19.211Z,1.60
2022-12-11T19:18:47.645Z,1.60
2022-12-11T19:21:17.705Z,1.60
2022-12-11T19:23:46.552Z,1.60
2022-12-11T19:26:17.893Z,1.50
2022-12-11T19:28:46.594Z,1.50
2022-12-11T19:31:17.769Z,1.40
2022-12-11T19:33:46.706Z,1.30
2022-12-11T19:36:16.854Z,1.30
2022-12-11T19:38:46.241Z,1.30
2022-12-11T19:41:16.707Z,1.30
2022-12-11T19:43:46.477Z,1.30
2022-12-11T19:46:15.814Z,1.20
2022-12-11T19:48:44.363Z,1.20
2022-12-11T19:51:15.079Z,1.20
2022-12-11T19:53:44.736Z,1.20
2022-12-11T19:56:13.422Z,1.30
2022-12-11T19:58:42.442Z,1.30
2022-12-11T20:01:18.409Z,1.30
2022-12-11T20:03:46.708Z,1.40
2022-12-11T20:06:15.715Z,1.40
2022-12-11T20:08:45.615Z,1.40
2022-12-11T20:11:18.246Z,1.20
2022-12-11T20:13:47.396Z,1.20
2022-12-11T20:16:19.998Z,1.30
2022-12-11T20:18:57.570Z,1.30
2022-12-11T20:21:27.222Z,1.30
2022-12-11T20:23:55.371Z,1.30
2022-12-11T20:26:25.244Z,1.20
2022-12-11T20:28:54.684Z,1.00
2022-12-11T20:31:26.031Z,1.10
2022-12-11T20:33:57.042Z,1.30
2022-12-11T20:36:26.643Z,1.40
2022-12-11T20:38:55.085Z,1.50
2022-12-11T20:41:24.995Z,1.50
2022-12-11T20:43:54.364Z,1.50
2022-12-11T20:46:26.291Z,1.60
2022-12-11T20:48:56.185Z,1.60
2022-12-11T20:51:26.283Z,1.50
2022-12-11T20:53:58.695Z,1.50
2022-12-11T20:56:29.406Z,1.50
2022-12-11T20:58:58.333Z,1.50
2022-12-11T21:01:32.655Z,1.40
2022-12-11T21:04:01.448Z,1.40
2022-12-11T21:06:31.670Z,1.30
2022-12-11T21:09:00.499Z,1.30
2022-12-11T21:11:28.929Z,1.40
2022-12-11T21:13:57.114Z,1.50
2022-12-11T21:16:26.966Z,1.50
2022-12-11T21:18:56.374Z,1.50
2022-12-11T21:21:24.943Z,1.60
2022-12-11T21:23:53.376Z,1.70
2022-12-11T21:26:21.927Z,1.60
2022-12-11T21:28:50.241Z,1.60
2022-12-11T21:31:20.481Z,1.60
2022-12-11T21:33:50.316Z,1.60
2022-12-11T21:36:18.889Z,1.60
2022-12-11T21:38:47.746Z,1.50
2022-12-11T21:41:18.685Z,1.50
2022-12-11T21:46:37.351Z,1.60
2022-12-11T21:49:08.260Z,1.60
2022-12-11T21:51:42.558Z,1.60
2022-12-11T21:54:15.505Z,1.60
2022-12-11T21:56:43.882Z,1.70
2022-12-11T21:59:12.218Z,1.60
2022-12-11T22:01:42.274Z,1.60
2022-12-11T22:04:12.907Z,1.60
2022-12-11T22:06:43.489Z,1.60
2022-12-11T22:09:13.201Z,1.60
2022-12-11T22:11:42.767Z,1.60
2022-12-11T22:14:13.573Z,1.60
2022-12-11T22:16:42.098Z,1.60
2022-12-11T22:19:12.083Z,1.60
2022-12-11T22:21:40.516Z,1.70
2022-12-11T22:24:09.425Z,1.80
2022-12-11T22:26:37.576Z,1.80
2022-12-11T22:29:05.658Z,1.90
2022-12-11T22:31:33.931Z,1.80
2022-12-11T22:34:02.052Z,1.80
2022-12-11T22:36:31.920Z,1.80
2022-12-11T22:39:01.933Z,1.80
2022-12-11T22:41:32.377Z,1.90
2022-12-11T22:44:01.049Z,1.90
2022-12-11T22:46:31.456Z,1.90
2022-12-11T22:49:00.219Z,2.00
2022-12-11T22:51:28.334Z,1.90
2022-12-11T22:53:58.981Z,1.90
2022-12-11T22:56:27.106Z,2.00
2022-12-11T22:58:55.215Z,1.90
2022-12-11T23:01:25.167Z,1.80
2022-12-11T23:03:54.132Z,1.70
2022-12-11T23:06:25.889Z,1.60
2022-12-11T23:08:55.210Z,1.40
2022-12-11T23:11:27.094Z,1.30
2022-12-11T23:13:56.266Z,1.30
2022-12-11T23:16:26.144Z,1.40
2022-12-11T23:18:55.172Z,1.50
2022-12-11T23:21:25.145Z,1.60
2022-12-11T23:23:53.639Z,1.80
2022-12-11T23:26:22.707Z,1.80
2022-12-11T23:28:52.701Z,1.90
2022-12-11T23:31:21.111Z,1.80
2022-12-11T23:33:49.411Z,1.90
2022-12-11T23:36:17.703Z,1.90
2022-12-11T23:38:50.972Z,1.90
2022-12-11T23:41:23.158Z,1.90
2022-12-11T23:43:52.904Z,1.90
2022-12-11T23:46:24.083Z,2.00
2022-12-11T23:48:52.886Z,2.00
2022-12-11T23:51:22.839Z,2.00
2022-12-11T23:53:51.309Z,2.00
2022-12-11T23:56:21.448Z,2.00
2022-12-11T23:58:49.622Z,2.00
